createdAt,value
2023-03-04T00:00:50.816Z,101835.97
2023-03-04T00:03:19.765Z,101830.84
2023-03-04T00:05:47.823Z,101835.13
2023-03-04T00:08:16.317Z,101833.41
2023-03-04T00:10:45.798Z,101831.47
2023-03-04T00:13:13.488Z,101835.91
2023-03-04T00:15:41.012Z,101835.03
2023-03-04T00:18:09.365Z,101833.22
2023-03-04T00:20:42.319Z,101833.88
2023-03-04T00:23:09.913Z,101830.69
2023-03-04T00:25:38.292Z,101827.13
2023-03-04T00:28:09.371Z,101825.34
2023-03-04T00:30:37.821Z,101822.88
2023-03-04T00:33:05.447Z,101828.06
2023-03-04T00:35:33.039Z,101831.63
2023-03-04T00:38:01.897Z,101827.94
2023-03-04T00:40:29.480Z,101821.16
2023-03-04T00:42:58.301Z,101825.44
2023-03-04T00:45:25.782Z,101816.44
2023-03-04T00:47:53.333Z,101825.56
2023-03-04T00:50:21.134Z,101822.91
2023-03-04T00:52:48.679Z,101820.06
2023-03-04T00:55:18.370Z,101813.94
2023-03-04T00:57:46.297Z,101818.28
2023-03-04T01:00:15.137Z,101811.38
2023-03-04T01:02:43.142Z,101815.72
2023-03-04T01:05:11.039Z,101816.50
2023-03-04T01:07:39.154Z,101811.28
2023-03-04T01:10:09.147Z,101816.44
2023-03-04T01:12:37.997Z,101805.03
2023-03-04T01:15:06.347Z,101808.44
2023-03-04T01:17:33.900Z,101810.22
2023-03-04T01:20:02.307Z,101814.66
2023-03-04T01:22:29.830Z,101814.66
2023-03-04T01:24:57.670Z,101805.03
2023-03-04T01:27:28.302Z,101807.59
2023-03-04T01:29:58.112Z,101805.09
2023-03-04T01:32:25.735Z,101795.47
2023-03-04T01:34:54.368Z,101798.28
2023-03-04T01:37:21.980Z,101798.28
2023-03-04T01:39:49.597Z,101798.28
2023-03-04T01:42:21.420Z,101798.56
2023-03-04T01:44:49.885Z,101796.94
2023-03-04T01:47:19.781Z,101791.56
2023-03-04T01:49:51.800Z,101794.91
2023-03-04T01:52:23.304Z,101781.91
2023-03-04T01:54:51.429Z,101789.09
2023-03-04T01:57:21.131Z,101782.97
2023-03-04T02:00:09.369Z,101781.03
2023-03-04T02:02:43.138Z,101779.25
2023-03-04T02:05:11.196Z,101778.38
2023-03-04T02:07:39.017Z,101773.91
2023-03-04T02:10:07.543Z,101769.47
2023-03-04T02:12:35.362Z,101772.88
2023-03-04T02:15:04.257Z,101772.13
2023-03-04T02:17:34.391Z,101766.75
2023-03-04T02:20:15.309Z,101763.19
2023-03-04T02:22:51.348Z,101769.41
2023-03-04T02:25:48.579Z,101769.41
2023-03-04T02:28:18.310Z,101765.06
2023-03-04T02:30:47.376Z,101767.84
2023-03-04T02:33:18.531Z,101760.00
2023-03-04T02:35:47.037Z,101757.53
2023-03-04T02:38:15.033Z,101757.38
2023-03-04T02:40:44.829Z,101753.97
2023-03-04T02:46:17.375Z,101745.13
2023-03-04T02:49:11.305Z,101750.25
2023-03-04T02:51:40.920Z,101743.25
2023-03-04T02:54:16.307Z,101739.75
2023-03-04T02:56:46.973Z,101741.53
2023-03-04T02:59:17.105Z,101736.19
2023-03-04T03:01:46.413Z,101736.03
2023-03-04T03:04:15.420Z,101732.25
2023-03-04T03:06:45.757Z,101737.91
2023-03-04T03:09:13.880Z,101739.63
2023-03-04T03:11:41.394Z,101736.19
2023-03-04T03:14:09.638Z,101735.34
2023-03-04T03:16:39.766Z,101733.31
2023-03-04T03:19:08.641Z,101731.94
2023-03-04T03:21:41.300Z,101733.63
2023-03-04T03:24:12.750Z,101727.66
2023-03-04T03:26:40.885Z,101723.78
2023-03-04T03:29:08.989Z,101720.53
2023-03-04T03:31:36.714Z,101717.91
2023-03-04T03:34:04.335Z,101718.75
2023-03-04T03:36:33.247Z,101726.50
2023-03-04T03:39:00.988Z,101724.78
2023-03-04T03:41:28.750Z,101724.88
2023-03-04T03:43:56.900Z,101723.00
2023-03-04T03:46:26.298Z,101723.88
2023-03-04T03:48:56.663Z,101723.78
2023-03-04T03:51:24.307Z,101716.81
2023-03-04T03:53:53.219Z,101725.50
2023-03-04T03:56:22.317Z,101720.22
2023-03-04T03:58:49.884Z,101721.06
2023-03-04T04:01:18.335Z,101719.28
2023-03-04T04:03:45.815Z,101726.25
2023-03-04T04:06:13.401Z,101720.34
2023-03-04T04:08:41.109Z,101721.16
2023-03-04T04:11:11.368Z,101714.19
2023-03-04T04:13:39.452Z,101722.16
2023-03-04T04:16:10.415Z,101711.53
2023-03-04T04:18:38.306Z,101712.44
2023-03-04T04:21:07.392Z,101710.69
2023-03-04T04:23:36.331Z,101713.25
2023-03-04T04:26:03.870Z,101712.63
2023-03-04T04:28:34.510Z,101709.97
2023-03-04T04:31:02.380Z,101707.25
2023-03-04T04:33:29.976Z,101702.59
2023-03-04T04:35:59.358Z,101709.13
2023-03-04T04:38:27.079Z,101707.34
2023-03-04T04:40:54.712Z,101714.22
2023-03-04T04:43:22.230Z,101711.53
2023-03-04T04:45:51.143Z,101704.53
2023-03-04T04:48:20.316Z,101706.25
2023-03-04T04:50:47.815Z,101695.78
2023-03-04T04:53:16.739Z,101698.09
2023-03-04T04:55:45.443Z,101701.13
2023-03-04T04:58:12.949Z,101697.78
2023-03-04T05:00:40.603Z,101703.06
2023-03-04T05:03:09.663Z,101705.63
2023-03-04T05:05:37.653Z,101696.88
2023-03-04T05:08:05.609Z,101693.31
2023-03-04T05:10:33.823Z,101693.31
2023-03-04T05:13:01.774Z,101696.72
2023-03-04T05:15:29.353Z,101692.28
2023-03-04T05:17:57.357Z,101696.63
2023-03-04T05:20:27.066Z,101698.34
2023-03-04T05:22:54.671Z,101704.53
2023-03-04T05:25:23.300Z,101700.13
2023-03-04T05:27:50.790Z,101700.13
2023-03-04T05:30:19.472Z,101700.06
2023-03-04T05:32:47.363Z,101698.41
2023-03-04T05:35:15.736Z,101699.25
2023-03-04T05:38:10.972Z,101699.25
2023-03-04T05:40:38.875Z,101707.25
2023-03-04T05:43:06.849Z,101711.69
2023-03-04T05:45:36.333Z,101702.91
2023-03-04T05:48:04.443Z,101697.66
2023-03-04T05:50:33.305Z,101710.75
2023-03-04T05:53:01.124Z,101698.34
2023-03-04T05:55:30.173Z,101708.91
2023-03-04T06:00:52.875Z,101700.81
2023-03-04T06:03:22.438Z,101706.25
2023-03-04T06:05:52.390Z,101707.25
2023-03-04T06:08:19.896Z,101709.97
2023-03-04T06:10:49.100Z,101717.13
2023-03-04T06:13:16.637Z,101718.81
2023-03-04T06:15:44.448Z,101720.63
2023-03-04T06:18:13.325Z,101718.88
2023-03-04T06:20:41.095Z,101722.22
2023-03-04T06:23:08.812Z,101717.25
2023-03-04T06:25:36.443Z,101722.53
2023-03-04T06:28:05.474Z,101714.63
2023-03-04T06:30:33.103Z,101721.47
2023-03-04T06:33:00.771Z,101718.97
2023-03-04T06:35:29.338Z,101722.44
2023-03-04T06:37:58.312Z,101715.41
2023-03-04T06:40:25.848Z,101719.75
2023-03-04T06:42:54.758Z,101724.25
2023-03-04T06:45:23.656Z,101725.94
2023-03-04T06:47:53.314Z,101728.56
2023-03-04T06:50:21.049Z,101724.16
2023-03-04T06:52:49.329Z,101726.75
2023-03-04T06:55:17.012Z,101737.28
2023-03-04T06:57:45.526Z,101735.41
2023-03-04T07:00:16.100Z,101739.06
2023-03-04T07:02:44.923Z,101740.84
2023-03-04T07:05:12.748Z,101739.97
2023-03-04T07:07:40.253Z,101741.75
2023-03-04T07:10:10.009Z,101740.91
2023-03-04T07:12:37.588Z,101732.94
2023-03-04T07:15:06.817Z,101736.50
2023-03-04T07:17:36.322Z,101727.91
2023-03-04T07:20:06.380Z,101730.53
2023-03-04T07:22:34.310Z,101740.16
2023-03-04T07:25:01.817Z,101737.34
2023-03-04T07:27:29.339Z,101736.66
2023-03-04T07:29:57.384Z,101738.28
2023-03-04T07:32:26.902Z,101728.56
2023-03-04T07:34:54.481Z,101728.53
2023-03-04T07:37:23.532Z,101724.66
2023-03-04T07:39:51.040Z,101725.72
2023-03-04T07:42:19.755Z,101724.72
2023-03-04T07:44:55.135Z,101726.50
2023-03-04T07:47:23.350Z,101731.47
2023-03-04T07:49:53.209Z,101728.91
2023-03-04T07:52:23.112Z,101727.75
2023-03-04T07:54:51.282Z,101726.81
2023-03-04T07:57:23.315Z,101724.09
2023-03-04T07:59:50.794Z,101727.38
2023-03-04T08:02:20.935Z,101734.34
2023-03-04T08:04:49.319Z,101727.91
2023-03-04T08:07:16.967Z,101730.16
2023-03-04T08:09:45.791Z,101731.09
2023-03-04T08:12:13.302Z,101731.84
2023-03-04T08:14:41.812Z,101733.22
2023-03-04T08:17:09.770Z,101736.91
2023-03-04T08:19:37.409Z,101734.16
2023-03-04T08:22:05.788Z,101732.78
2023-03-04T08:24:33.638Z,101729.66
2023-03-04T08:27:02.541Z,101736.66
2023-03-04T08:29:32.319Z,101737.19
2023-03-04T08:32:00.880Z,101738.97
2023-03-04T08:34:29.903Z,101741.63
2023-03-04T08:36:57.654Z,101746.91
2023-03-04T08:39:25.887Z,101744.19
2023-03-04T08:41:53.430Z,101741.44
2023-03-04T08:44:25.100Z,101743.00
2023-03-04T08:46:54.381Z,101742.84
2023-03-04T08:49:21.955Z,101746.41
2023-03-04T08:51:49.802Z,101745.72
2023-03-04T08:54:18.836Z,101744.88
2023-03-04T08:56:47.314Z,101734.91
2023-03-04T08:59:14.814Z,101734.16
2023-03-04T09:01:43.930Z,101727.84
2023-03-04T09:04:13.330Z,101729.63
2023-03-04T09:06:41.367Z,101725.91
2023-03-04T09:09:09.191Z,101719.63
2023-03-04T09:11:36.970Z,101734.25
2023-03-04T09:14:04.737Z,101720.16
2023-03-04T09:16:32.220Z,101718.28
2023-03-04T09:19:01.183Z,101719.69
2023-03-04T09:21:29.332Z,101714.44
2023-03-04T09:23:56.857Z,101716.94
2023-03-04T09:26:28.090Z,101720.19
2023-03-04T09:28:58.463Z,101721.00
2023-03-04T09:31:27.584Z,101722.34
2023-03-04T09:33:57.306Z,101722.13
2023-03-04T09:36:26.315Z,101722.13
2023-03-04T09:38:55.802Z,101714.75
2023-03-04T09:41:26.922Z,101718.81
2023-03-04T09:43:55.487Z,101710.53
2023-03-04T09:46:31.743Z,101715.38
2023-03-04T09:48:59.527Z,101715.13
2023-03-04T09:51:42.902Z,101717.09
2023-03-04T09:54:15.386Z,101716.41
2023-03-04T09:56:44.462Z,101720.75
2023-03-04T09:59:19.294Z,101715.47
2023-03-04T10:01:50.804Z,101716.31
2023-03-04T10:04:23.510Z,101724.16
2023-03-04T10:06:55.104Z,101714.44
2023-03-04T10:09:26.924Z,101719.47
2023-03-04T10:12:03.932Z,101716.66
2023-03-04T10:14:36.074Z,101715.28
2023-03-04T10:17:09.749Z,101711.09
2023-03-04T10:19:55.177Z,101704.88
2023-03-04T10:22:30.841Z,101697.84
2023-03-04T10:25:02.345Z,101699.59
2023-03-04T10:27:31.335Z,101702.22
2023-03-04T10:30:01.586Z,101704.53
2023-03-04T10:32:29.943Z,101704.38
2023-03-04T10:34:57.665Z,101693.69
2023-03-04T10:37:44.896Z,101696.59
2023-03-04T10:40:21.670Z,101695.22
2023-03-04T10:42:50.950Z,101695.78
2023-03-04T10:45:24.076Z,101688.78
2023-03-04T10:47:58.301Z,101693.44
2023-03-04T10:50:28.376Z,101695.03
2023-03-04T10:52:57.769Z,101702.03
2023-03-04T10:55:28.482Z,101689.56
2023-03-04T10:58:03.186Z,101691.38
2023-03-04T11:00:33.240Z,101690.44
2023-03-04T11:03:25.961Z,101684.78
2023-03-04T11:06:11.377Z,101684.44
2023-03-04T11:08:43.921Z,101681.13
2023-03-04T11:11:27.378Z,101684.53
2023-03-04T11:14:01.204Z,101684.13
2023-03-04T11:16:30.938Z,101682.34
2023-03-04T11:19:01.449Z,101687.81
2023-03-04T11:21:32.838Z,101687.53
2023-03-04T11:24:04.494Z,101681.41
2023-03-04T11:26:37.347Z,101676.13
2023-03-04T11:29:15.278Z,101676.97
2023-03-04T11:31:50.120Z,101670.91
2023-03-04T11:34:30.875Z,101668.09
2023-03-04T11:37:03.465Z,101671.22
2023-03-04T11:39:38.321Z,101672.66
2023-03-04T11:42:17.371Z,101666.16
2023-03-04T11:44:45.177Z,101661.56
2023-03-04T11:47:35.901Z,101658.38
2023-03-04T11:50:16.386Z,101664.63
2023-03-04T11:53:05.440Z,101662.34
2023-03-04T11:55:41.901Z,101662.91
2023-03-04T11:58:26.483Z,101658.91
2023-03-04T12:01:02.179Z,101658.31
2023-03-04T12:03:53.441Z,101653.44
2023-03-04T12:06:34.450Z,101657.88
2023-03-04T12:09:16.166Z,101654.75
2023-03-04T12:11:56.785Z,101640.78
2023-03-04T12:14:29.341Z,101638.28
2023-03-04T12:17:32.330Z,101641.13
2023-03-04T12:20:31.117Z,101628.41
2023-03-04T12:23:11.793Z,101623.63
2023-03-04T12:25:43.297Z,101628.66
2023-03-04T12:28:52.468Z,101624.66
2023-03-04T12:31:34.694Z,101607.66
2023-03-04T12:34:44.307Z,101605.50
2023-03-04T12:37:23.310Z,101603.38
2023-03-04T12:40:07.065Z,101601.72
2023-03-04T12:42:43.397Z,101594.25
2023-03-04T12:45:22.150Z,101593.69
2023-03-04T12:48:03.427Z,101590.13
2023-03-04T12:51:02.053Z,101593.31
2023-03-04T12:53:40.323Z,101586.91
2023-03-04T12:56:22.937Z,101593.81
2023-03-04T12:58:50.942Z,101597.13
2023-03-04T13:01:27.346Z,101589.34
2023-03-04T13:04:05.391Z,101588.41
2023-03-04T13:06:43.533Z,101587.75
2023-03-04T13:09:20.784Z,101592.19
2023-03-04T13:12:03.324Z,101591.25
2023-03-04T13:14:33.142Z,101586.31
2023-03-04T13:17:02.333Z,101579.22
2023-03-04T13:19:50.788Z,101585.19
2023-03-04T13:22:35.352Z,101585.84
2023-03-04T13:25:34.220Z,101582.34
2023-03-04T13:28:20.775Z,101576.03
2023-03-04T13:31:16.486Z,101565.53
2023-03-04T13:34:03.330Z,101566.59
2023-03-04T13:37:00.662Z,101552.41
2023-03-04T13:39:32.007Z,101554.97
2023-03-04T13:41:59.997Z,101558.19
2023-03-04T13:45:04.477Z,101564.16
2023-03-04T13:47:44.392Z,101558.28
2023-03-04T13:50:39.378Z,101557.91
2023-03-04T13:53:44.403Z,101551.56
2023-03-04T13:56:43.328Z,101548.75
2023-03-04T13:59:29.506Z,101544.09
2023-03-04T14:02:04.328Z,101552.91
2023-03-04T14:04:36.347Z,101550.34
2023-03-04T14:07:21.355Z,101557.72
2023-03-04T14:09:57.608Z,101560.84
2023-03-04T14:12:29.324Z,101555.91
2023-03-04T14:15:00.027Z,101547.13
2023-03-04T14:17:31.147Z,101551.19
2023-03-04T14:20:00.795Z,101549.66
2023-03-04T14:22:31.155Z,101545.31
2023-03-04T14:25:04.332Z,101555.91
2023-03-04T14:27:36.976Z,101538.91
2023-03-04T14:30:07.292Z,101544.56
2023-03-04T14:32:36.443Z,101549.22
2023-03-04T14:35:07.325Z,101539.88
2023-03-04T14:37:43.413Z,101546.56
2023-03-04T14:40:21.658Z,101536.16
2023-03-04T14:43:01.369Z,101535.31
2023-03-04T14:45:31.030Z,101526.81
2023-03-04T14:48:05.789Z,101524.91
2023-03-04T14:50:37.673Z,101528.06
2023-03-04T14:53:15.487Z,101521.59
2023-03-04T14:55:58.340Z,101518.97
2023-03-04T14:58:30.511Z,101523.50
2023-03-04T15:01:06.489Z,101520.75
2023-03-04T15:03:35.200Z,101515.75
2023-03-04T15:06:19.279Z,101516.78
2023-03-04T15:08:48.314Z,101514.91
2023-03-04T15:11:24.498Z,101510.00
2023-03-04T15:13:56.460Z,101511.13
2023-03-04T15:16:26.836Z,101519.53
2023-03-04T15:18:56.407Z,101517.47
2023-03-04T15:21:34.905Z,101505.56
2023-03-04T15:24:03.653Z,101510.84
2023-03-04T15:26:32.584Z,101506.22
2023-03-04T15:29:05.024Z,101519.06
2023-03-04T15:31:32.573Z,101513.03
2023-03-04T15:34:00.818Z,101509.97
2023-03-04T15:36:28.340Z,101502.06
2023-03-04T15:39:01.324Z,101507.16
2023-03-04T15:41:29.635Z,101516.91
2023-03-04T15:43:57.231Z,101519.06
2023-03-04T15:46:26.152Z,101511.03
2023-03-04T15:48:53.755Z,101513.84
2023-03-04T15:51:23.378Z,101509.72
2023-03-04T15:53:52.461Z,101506.88
2023-03-04T15:56:22.136Z,101505.84
2023-03-04T15:58:55.064Z,101507.81
2023-03-04T16:01:25.356Z,101513.38
2023-03-04T16:03:54.927Z,101505.56
2023-03-04T16:06:27.326Z,101504.59
2023-03-04T16:08:54.883Z,101501.84
2023-03-04T16:11:25.002Z,101512.44
2023-03-04T16:13:52.995Z,101508.28
2023-03-04T16:19:13.683Z,101502.31
2023-03-04T16:21:41.728Z,101505.94
2023-03-04T16:24:16.812Z,101507.25
2023-03-04T16:26:44.336Z,101511.47
2023-03-04T16:29:12.368Z,101503.56
2023-03-04T16:31:39.940Z,101507.69
2023-03-04T16:34:07.626Z,101515.72
2023-03-04T16:36:36.950Z,101523.19
2023-03-04T16:39:10.949Z,101519.09
2023-03-04T16:41:38.785Z,101513.09
2023-03-04T16:44:09.008Z,101515.72
2023-03-04T16:46:37.373Z,101512.38
2023-03-04T16:49:05.776Z,101517.06
2023-03-04T16:51:40.627Z,101526.28
2023-03-04T16:54:15.491Z,101527.38
2023-03-04T16:56:43.058Z,101527.69
2023-03-04T16:59:18.319Z,101528.75
2023-03-04T17:01:46.573Z,101531.38
2023-03-04T17:04:14.493Z,101530.03
2023-03-04T17:06:45.385Z,101539.91
2023-03-04T17:09:13.848Z,101534.81
2023-03-04T17:11:41.502Z,101542.03
2023-03-04T17:14:09.316Z,101535.66
2023-03-04T17:16:36.966Z,101541.69
2023-03-04T17:19:04.545Z,101540.69
2023-03-04T17:21:32.380Z,101536.25
2023-03-04T17:24:03.026Z,101545.88
2023-03-04T17:26:31.337Z,101540.59
2023-03-04T17:28:58.924Z,101544.84
2023-03-04T17:31:26.622Z,101545.97
2023-03-04T17:33:54.853Z,101545.97
2023-03-04T17:36:22.512Z,101551.63
2023-03-04T17:38:51.960Z,101546.31
2023-03-04T17:41:21.957Z,101542.88
2023-03-04T17:43:51.047Z,101552.81
2023-03-04T17:46:20.922Z,101553.78
2023-03-04T17:48:48.773Z,101547.56
2023-03-04T17:51:16.293Z,101549.63
2023-03-04T17:53:43.840Z,101543.50
2023-03-04T17:56:12.612Z,101549.53
2023-03-04T17:58:41.979Z,101546.78
2023-03-04T18:01:17.566Z,101537.34
2023-03-04T18:03:45.184Z,101538.44
2023-03-04T18:06:14.677Z,101540.06
2023-03-04T18:08:42.321Z,101543.63
2023-03-04T18:11:10.184Z,101542.78
2023-03-04T18:13:39.030Z,101533.94
2023-03-04T18:16:11.684Z,101536.34
2023-03-04T18:18:40.676Z,101537.66
2023-03-04T18:21:08.589Z,101540.56
2023-03-04T18:23:37.828Z,101537.94
2023-03-04T18:26:05.406Z,101547.47
2023-03-04T18:28:33.801Z,101538.31
2023-03-04T18:31:01.708Z,101541.25
2023-03-04T18:33:32.413Z,101550.16
2023-03-04T18:36:03.962Z,101540.88
2023-03-04T18:38:32.312Z,101548.59
2023-03-04T18:41:00.963Z,101545.63
2023-03-04T18:43:28.864Z,101548.69
2023-03-04T18:46:05.313Z,101549.34
2023-03-04T18:49:03.184Z,101550.28
2023-03-04T18:51:31.348Z,101548.72
2023-03-04T18:53:59.778Z,101549.03
2023-03-04T18:56:37.520Z,101549.66
2023-03-04T18:59:07.353Z,101555.97
2023-03-04T19:01:35.264Z,101559.53
2023-03-04T19:04:05.591Z,101551.63
2023-03-04T19:06:34.566Z,101556.72
2023-03-04T19:09:03.477Z,101557.50
2023-03-04T19:11:31.578Z,101558.59
2023-03-04T19:13:59.336Z,101560.13
2023-03-04T19:16:27.042Z,101554.94
2023-03-04T19:18:54.815Z,101559.88
2023-03-04T19:21:23.632Z,101559.38
2023-03-04T19:23:51.384Z,101561.94
2023-03-04T19:26:19.028Z,101562.88
2023-03-04T19:28:46.524Z,101562.09
2023-03-04T19:31:14.175Z,101554.03
2023-03-04T19:33:42.347Z,101562.19
2023-03-04T19:36:10.544Z,101562.94
2023-03-04T19:38:40.075Z,101565.50
2023-03-04T19:41:11.938Z,101570.00
2023-03-04T19:43:39.645Z,101574.25
2023-03-04T19:46:08.841Z,101574.53
2023-03-04T19:48:37.724Z,101564.88
2023-03-04T19:51:14.002Z,101568.44
2023-03-04T19:53:45.329Z,101561.56
2023-03-04T19:56:18.403Z,101564.03
2023-03-04T19:58:47.001Z,101569.38
2023-03-04T20:01:27.444Z,101569.25
2023-03-04T20:03:55.692Z,101564.13
2023-03-04T20:06:23.807Z,101565.81
2023-03-04T20:08:53.044Z,101561.56
2023-03-04T20:11:20.582Z,101569.63
2023-03-04T20:13:48.156Z,101575.81
2023-03-04T20:16:15.755Z,101574.75
2023-03-04T20:18:43.998Z,101570.78
2023-03-04T20:21:12.611Z,101570.09
2023-03-04T20:23:40.790Z,101569.84
2023-03-04T20:26:09.642Z,101572.56
2023-03-04T20:28:50.058Z,101573.59
2023-03-04T20:31:21.577Z,101561.41
2023-03-04T20:33:50.985Z,101568.53
2023-03-04T20:36:19.588Z,101567.69
2023-03-04T20:38:48.293Z,101571.09
2023-03-04T20:41:17.664Z,101572.25
2023-03-04T20:43:49.065Z,101567.78
2023-03-04T20:46:32.253Z,101572.25
2023-03-04T20:49:02.021Z,101567.16
2023-03-04T20:51:30.452Z,101572.34
2023-03-04T20:53:59.329Z,101569.06
2023-03-04T20:56:29.144Z,101573.50
2023-03-04T20:58:58.341Z,101573.50
2023-03-04T21:01:26.717Z,101571.69
2023-03-04T21:03:54.336Z,101562.88
2023-03-04T21:06:25.086Z,101568.22
2023-03-04T21:08:52.780Z,101565.75
2023-03-04T21:11:20.745Z,101566.53
2023-03-04T21:13:55.836Z,101563.13
2023-03-04T21:16:27.445Z,101560.41
2023-03-04T21:18:54.982Z,101561.16
2023-03-04T21:21:24.735Z,101553.25
2023-03-04T21:23:55.512Z,101558.53
2023-03-04T21:26:24.308Z,101554.97
2023-03-04T21:28:54.084Z,101549.63
2023-03-04T21:31:24.321Z,101548.00
2023-03-04T21:33:53.642Z,101545.34
2023-03-04T21:36:21.801Z,101545.34
2023-03-04T21:38:49.759Z,101536.59
2023-03-04T21:41:19.588Z,101539.25
2023-03-04T21:43:47.194Z,101534.81
2023-03-04T21:46:17.654Z,101533.88
2023-03-04T21:48:47.442Z,101534.72
2023-03-04T21:51:17.433Z,101535.66
2023-03-04T21:53:45.900Z,101529.63
2023-03-04T21:56:14.071Z,101527.94
2023-03-04T21:58:42.553Z,101529.72
2023-03-04T22:01:11.448Z,101529.78
2023-03-04T22:03:40.578Z,101529.78
2023-03-04T22:06:10.172Z,101523.75
2023-03-04T22:08:38.711Z,101520.09
2023-03-04T22:11:07.705Z,101516.56
2023-03-04T22:13:35.603Z,101519.09
2023-03-04T22:16:03.277Z,101521.88
2023-03-04T22:18:31.738Z,101521.88
2023-03-04T22:21:04.434Z,101522.72
2023-03-04T22:23:33.443Z,101513.97
2023-03-04T22:26:03.342Z,101515.75
2023-03-04T22:28:31.658Z,101513.22
2023-03-04T22:30:59.836Z,101512.34
2023-03-04T22:33:28.419Z,101509.72
2023-03-04T22:35:56.152Z,101511.50
2023-03-04T22:38:25.061Z,101506.31
2023-03-04T22:40:53.396Z,101512.44
2023-03-04T22:43:21.152Z,101502.03
2023-03-04T22:45:49.409Z,101493.38
2023-03-04T22:48:16.956Z,101497.88
2023-03-04T22:50:44.447Z,101494.31
2023-03-04T22:53:11.952Z,101492.53
2023-03-04T22:55:40.800Z,101487.25
2023-03-04T22:58:08.439Z,101489.06
2023-03-04T23:00:38.033Z,101482.84
2023-03-04T23:03:06.318Z,101485.47
2023-03-04T23:05:34.387Z,101472.41
2023-03-04T23:08:01.897Z,101464.50
2023-03-04T23:10:29.717Z,101478.56
2023-03-04T23:15:51.364Z,101468.13
2023-03-04T23:18:19.054Z,101468.19
2023-03-04T23:20:47.445Z,101465.66
2023-03-04T23:23:15.800Z,101468.28
2023-03-04T23:25:43.408Z,101468.44
2023-03-04T23:28:13.555Z,101473.59
2023-03-04T23:30:41.179Z,101469.44
2023-03-04T23:33:08.647Z,101467.75
2023-03-04T23:35:36.333Z,101472.13
2023-03-04T23:38:03.839Z,101472.13
2023-03-04T23:40:33.377Z,101469.44
2023-03-04T23:43:03.782Z,101471.28
2023-03-04T23:45:33.244Z,101465.25
2023-03-04T23:48:01.437Z,101467.03
2023-03-04T23:50:29.046Z,101462.63
2023-03-04T23:52:57.436Z,101464.50
2023-03-04T23:55:24.926Z,101455.78
2023-03-04T23:57:52.440Z,101460.06
